Latest Weather Observations for Eucla

IDW60801

Issued at 7:33 am WST Thursday 8 December 2016 (issued every 30 minutes, with the page automatically refreshed every 10 minutes)

About weather observations | Map of weather stations | Latest weather observations for WA | Other Formats
Station Details ID: 011003 Name: EUCLA Lat: -31.68 Lon: 128.90 Height: 93.1 m
Data from the previous 72 hours. | See also: Recent months at Eucla
Date/Time
WST
Temp
°C
App
Temp
°C
Dew
Point
°C
Rel
Hum
%
Delta-T
°C
Wind Press
QNH
hPa
Press
MSL
hPa
Rain since
9am
mm
Dir  Spd
km/h
Gust
km/h
Spd
kts
Gust
kts
08/07:30am 17.6 13.9 9.5 59 4.3 SSW 19 28 10 15 1019.9 1019.6 0.0
08/07:00am 17.2 13.4 8.9 58 4.3 SSW 19 26 10 14 1019.5 1019.2 0.0
08/06:30am 17.4 12.9 6.0 47 5.6 SSW 19 30 10 16 1019.1 1018.8 0.0
08/06:00am 16.5 13.0 7.4 55 4.6 SSW 15 26 8 14 1018.8 1018.6 0.0
08/05:30am 16.6 12.3 7.0 53 4.8 SSW 19 28 10 15 1018.4 1018.2 0.0
08/05:00am 16.0 12.4 8.2 60 4.0 SSW 17 28 9 15 1017.9 1017.7 0.0
08/04:30am 15.7 11.6 8.7 63 3.6 SSW 20 30 11 16 1017.3 1017.1 0.0
08/04:00am 16.0 12.2 9.2 64 3.5 SSW 19 30 10 16 1016.9 1016.7 0.0
08/03:30am 15.9 12.1 8.9 63 3.6 SSW 19 28 10 15 1016.5 1016.2 0.0
08/03:00am 15.9 11.8 7.7 58 4.1 SSW 19 33 10 18 1016.3 1016.0 0.0
08/02:30am 15.6 11.1 6.9 56 4.3 SSW 20 37 11 20 1016.2 1015.9 0.0
08/02:00am 15.9 11.3 8.2 60 3.9 SSW 22 33 12 18 1015.8 1015.5 0.0
08/01:30am 16.1 11.4 9.3 64 3.5 SSW 24 41 13 22 1015.5 1015.2 0.0
08/01:00am 16.1 11.6 8.6 61 3.8 SSW 22 35 12 19 1015.3 1015.0 0.0
08/12:30am 16.0 10.4 7.0 55 4.5 SSW 26 41 14 22 1015.3 1015.0 0.0
08/12:00am 16.3 10.6 8.3 59 4.1 SSW 28 46 15 25 1015.3 1015.0 0.0
 
Date/Time
WST
Temp
°C
App
Temp
°C
Dew
Point
°C
Rel
Hum
%
Delta-T
°C
Wind Press
QNH
hPa
Press
MSL
hPa
Rain since
9am
mm
Dir  Spd
km/h
Gust
km/h
Spd
kts
Gust
kts
07/11:37pm 16.1 10.3 8.1 59 4.1 SSW 28 48 15 26 1015.3 1015.0 0.0
07/11:30pm 16.2 10.9 8.4 60 4.0 SSW 26 39 14 21 1015.3 1015.0 0.0
07/11:02pm 16.0 10.1 7.5 57 4.3 SSW 28 48 15 26 1015.2 1014.9 0.0
07/11:00pm 16.0 10.6 8.0 59 4.0 SSW 26 48 14 26 1015.2 1014.9 0.0
07/10:30pm 16.2 9.7 8.2 59 4.1 SSW 32 50 17 27 1015.2 1014.9 0.0
07/10:00pm 16.3 9.9 9.3 63 3.6 SSW 33 52 18 28 1014.9 1014.6 0.0
07/09:30pm 16.5 10.0 8.2 58 4.2 SW 32 52 17 28 1014.6 1014.3 0.0
07/09:00pm 16.4 10.1 9.8 65 3.5 SSW 33 52 18 28 1014.3 1014.0 0.0
07/08:30pm 16.6 10.4 10.0 65 3.5 SSW 33 54 18 29 1013.7 1013.4 0.0
07/08:01pm 16.7 10.4 9.6 63 3.7 SSW 33 52 18 28 1013.0 1012.7 0.0
07/08:00pm 16.7 10.1 9.9 64 3.6 SSW 35 52 19 28 1013.0 1012.7 0.0
07/07:30pm 16.8 10.3 10.4 66 3.4 SSW 35 54 19 29 1012.3 1012.0 0.0
07/07:00pm 17.1 10.8 10.9 67 3.3 SSW 35 54 19 29 1011.7 1011.4 0.0
07/06:30pm 17.4 11.7 11.9 70 3.0 SSW 33 52 18 28 1011.1 1010.8 0.0
07/06:00pm 17.9 10.8 12.1 69 3.2 SSW 41 59 22 32 1010.7 1010.4 0.0
07/05:30pm 18.6 11.7 11.7 64 3.8 SSW 39 63 21 34 1009.9 1009.6 0.0
07/05:00pm 18.9 12.8 12.9 68 3.4 SSW 37 59 20 32 1009.3 1009.0 0.0
07/04:30pm 19.6 13.6 13.3 67 3.6 SSW 37 59 20 32 1008.7 1008.4 0.0
07/04:00pm 20.5 14.0 13.0 62 4.3 SSW 39 65 21 35 1008.2 1007.9 0.0
07/03:30pm 21.0 14.0 12.4 58 4.9 SSW 41 67 22 36 1007.9 1007.6 0.0
07/03:00pm 21.4 14.0 13.1 59 4.8 SSW 44 69 24 37 1007.4 1007.1 0.0
07/02:30pm 22.0 14.9 14.1 61 4.6 SW 44 82 24 44 1006.5 1006.2 0.0
07/02:00pm 22.9 15.8 13.4 55 5.5 SW 43 76 23 41 1005.3 1005.0 0.0
07/01:50pm 22.8 15.3 13.8 57 5.3 SW 46 76 25 41 1005.2 1004.9 0.0
07/01:30pm 26.9 20.8 16.2 52 6.6 WSW 43 74 23 40 1003.2 1002.9 0.0
07/01:29pm 27.3 21.5 16.0 50 7.0 WSW 41 74 22 40 1003.2 1002.9 0.0
07/01:21pm 32.4 27.1 14.1 33 11.2 WNW 35 63 19 34 1002.4 1002.1 0.0
07/01:00pm 39.2 32.3 8.8 16 17.7 NW 35 59 19 32 1000.9 1000.6 0.0
07/12:30pm 37.4 31.3 9.9 19 16.1 NW 32 54 17 29 1001.6 1001.3 0.0
07/12:10pm 39.0 33.3 11.2 19 16.7 NW 32 50 17 27 1002.1 1001.8 0.0
07/12:00pm 38.9 33.0 11.1 19 16.7 NW 33 50 18 27 1002.4 1002.1 0.0
07/11:30am 37.8 32.5 13.1 23 15.2 NNW 33 52 18 28 1003.2 1002.9 0.0
07/11:00am 36.7 31.5 14.6 26 13.8 NNW 35 57 19 31 1004.0 1003.7 0.0
07/10:30am 36.2 31.3 14.2 26 13.6 NNW 33 54 18 29 1004.6 1004.3 0.0
07/10:21am 35.2 30.6 14.5 29 12.8 NNW 32 50 17 27 1004.7 1004.4 0.0
07/10:00am 34.9 30.2 14.2 28 12.8 NNW 32 48 17 26 1005.2 1004.9 0.0
07/09:33am 33.8 29.3 12.7 27 12.7 N 28 46 15 25 1005.6 1005.3 0.0
07/09:30am 33.8 28.9 12.7 27 12.7 N 30 46 16 25 1005.7 1005.4 0.0
07/09:00am 32.0 26.5 11.7 28 12.0 N 32 44 17 24 1006.4 1006.1 0.0
07/08:41am 31.5 25.8 11.3 29 11.8 N 32 50 17 27 1006.7 1006.4 0.0
07/08:30am 30.5 25.5 11.0 30 11.3 N 28 44 15 24 1007.0 1006.7 0.0
07/08:00am 28.7 23.4 9.9 31 10.6 N 28 43 15 23 1007.6 1007.4 0.0
07/07:30am 27.1 21.3 9.5 33 9.8 NNE 30 44 16 24 1008.3 1008.0 0.0
07/07:00am 25.2 18.9 9.1 36 8.8 NNE 32 44 17 24 1008.6 1008.3 0.0
07/06:30am 23.1 17.0 8.4 39 7.8 NNE 30 43 16 23 1008.8 1008.5 0.0
07/06:00am 20.8 15.0 7.8 43 6.8 NNE 28 37 15 20 1009.0 1008.7 0.0
07/05:30am 18.7 13.2 7.5 48 5.7 NNE 26 35 14 19 1009.2 1008.9 0.0
07/05:00am 17.1 11.1 6.9 51 5.1 NNE 28 37 15 20 1009.3 1009.0 0.0
07/04:30am 16.3 10.6 6.7 53 4.7 NNE 26 43 14 23 1009.4 1009.1 0.0
07/04:00am 16.2 10.2 6.9 54 4.6 NNE 28 35 15 19 1009.4 1009.1 0.0
07/03:30am 16.2 11.4 7.2 55 4.5 NNE 22 30 12 16 1009.6 1009.3 0.0
07/03:00am 16.0 11.7 8.0 59 4.1 NNE 20 30 11 16 1009.8 1009.5 0.0
07/02:30am 16.0 12.1 8.7 62 3.7 NNE 19 28 10 15 1010.2 1009.9 0.0
07/02:00am 15.9 11.9 9.1 64 3.5 NNE 20 30 11 16 1010.4 1010.1 0.0
07/01:30am 15.8 12.2 9.9 68 3.1 NE 19 28 10 15 1010.6 1010.3 0.0
07/01:00am 15.7 12.4 10.9 73 2.6 NE 19 26 10 14 1010.9 1010.6 0.0
07/12:30am 15.5 12.5 12.1 80 1.9 NE 19 26 10 14 1011.5 1011.2 0.0
07/12:00am 15.3 13.3 12.8 85 1.4 NE 15 20 8 11 1012.1 1011.8 0.0
 
Date/Time
WST
Temp
°C
App
Temp
°C
Dew
Point
°C
Rel
Hum
%
Delta-T
°C
Wind Press
QNH
hPa
Press
MSL
hPa
Rain since
9am
mm
Dir  Spd
km/h
Gust
km/h
Spd
kts
Gust
kts
06/11:30pm 15.4 13.9 13.1 86 1.3 NE 13 20 7 11 1012.7 1012.4 0.0
06/11:00pm 15.6 14.2 13.4 87 1.2 NE 13 17 7 9 1013.3 1013.0 0.0
06/10:30pm 16.0 14.3 13.7 86 1.3 NE 15 20 8 11 1013.7 1013.4 0.0
06/10:00pm 16.3 15.1 14.0 86 1.3 ENE 13 19 7 10 1014.1 1013.8 0.0
06/09:30pm 16.6 15.5 14.4 87 1.3 ENE 13 20 7 11 1014.5 1014.2 0.0
06/09:00pm 16.7 15.2 14.2 85 1.4 E 15 22 8 12 1014.7 1014.4 0.0
06/08:30pm 17.1 15.7 14.6 85 1.4 E 15 24 8 13 1014.7 1014.4 0.0
06/08:00pm 17.1 15.7 14.6 85 1.4 E 15 26 8 14 1014.7 1014.4 0.0
06/07:30pm 17.2 15.0 14.5 84 1.6 ESE 19 30 10 16 1014.6 1014.3 0.0
06/07:00pm 17.4 15.5 14.3 82 1.8 ESE 17 24 9 13 1014.7 1014.4 0.0
06/06:30pm 17.6 15.6 13.9 79 2.1 SE 17 24 9 13 1014.6 1014.3 0.0
06/06:00pm 17.9 15.5 14.4 80 2.0 SE 20 28 11 15 1014.5 1014.2 0.0
06/05:30pm 18.8 16.6 14.5 76 2.5 SE 19 33 10 18 1014.5 1014.2 0.0
06/05:00pm 19.2 16.5 14.5 74 2.7 SE 22 33 12 18 1014.2 1013.9 0.0
06/04:30pm 19.7 17.0 13.6 68 3.5 ESE 20 30 11 16 1013.9 1013.6 0.0
06/04:00pm 20.1 17.3 13.3 65 3.9 ESE 20 33 11 18 1013.7 1013.4 0.0
06/03:30pm 21.6 18.4 13.2 59 4.8 E 22 33 12 18 1013.6 1013.3 0.0
06/03:00pm 21.1 17.7 12.5 58 4.9 ESE 22 32 12 17 1013.8 1013.5 0.0
06/02:30pm 21.5 17.8 11.5 53 5.6 ESE 22 32 12 17 1014.2 1013.9 0.0
06/02:00pm 20.8 16.9 10.9 53 5.4 SE 22 35 12 19 1014.7 1014.4 0.0
06/01:30pm 22.1 18.5 11.8 52 5.8 SE 22 32 12 17 1014.8 1014.5 0.0
06/01:00pm 21.8 18.0 11.2 51 5.9 SE 22 33 12 18 1014.9 1014.6 0.0
06/12:30pm 21.8 19.2 13.9 61 4.6 SE 20 30 11 16 1015.0 1014.7 0.0
06/12:00pm 22.4 19.9 13.5 57 5.2 ESE 19 26 10 14 1015.0 1014.7 0.0
06/11:30am 22.6 19.8 12.5 53 5.8 ESE 19 26 10 14 1015.4 1015.1 0.0
06/11:00am 22.3 20.0 14.2 60 4.8 SE 19 28 10 15 1015.7 1015.4 0.0
06/10:30am 22.2 20.4 13.3 57 5.1 ESE 15 22 8 12 1016.0 1015.7 0.0
06/10:00am 22.3 20.6 13.6 58 5.1 ESE 15 24 8 13 1016.1 1015.8 0.0
06/09:30am 21.0 18.7 12.9 60 4.6 SE 17 26 9 14 1016.3 1016.0 0.0
06/09:00am 20.7 18.5 13.2 62 4.3 SSE 17 24 9 13 1016.4 1016.1 0.2
06/08:30am 21.5 19.9 13.9 62 4.4 SE 15 22 8 12 1016.6 1016.3 0.2
06/08:00am 20.6 18.9 13.6 64 4.0 SSE 15 22 8 12 1016.7 1016.4 0.2
06/07:30am 20.6 19.0 14.0 66 3.8 SSE 15 20 8 11 1016.7 1016.4 0.2
06/07:00am 20.1 19.6 13.8 67 3.6 E 9 15 5 8 1016.6 1016.3 0.2
06/06:30am 19.2 18.7 13.8 71 3.1 E 9 15 5 8 1016.3 1016.0 0.2
06/06:00am 18.1 17.5 13.6 75 2.6 E 9 13 5 7 1016.1 1015.8 0.2
06/05:30am 16.9 16.7 13.6 81 1.9 ENE 7 13 4 7 1015.8 1015.5 0.2
06/05:00am 16.3 15.8 13.8 85 1.4 E 9 11 5 6 1015.5 1015.2 0.2
06/04:30am 15.2 14.9 13.2 88 1.1 ESE 7 9 4 5 1015.4 1015.1 0.2
06/04:00am 15.0 14.7 13.2 89 1.0 E 7 11 4 6 1015.3 1015.0 0.2
06/03:30am 15.1 14.6 12.8 86 1.3 ESE 7 9 4 5 1015.0 1014.7 0.2
06/03:00am 15.8 15.1 13.3 85 1.4 E 9 13 5 7 1014.8 1014.5 0.2
06/02:30am 15.6 15.0 11.8 78 2.1 SSW 6 11 3 6 1014.9 1014.6 0.2
06/02:00am 15.8 14.4 12.2 79 2.0 S 11 19 6 10 1014.5 1014.2 0.2
06/01:30am 15.5 13.0 12.4 82 1.7 NE 17 24 9 13 1013.7 1013.4 0.2
06/01:00am 15.3 13.4 13.0 86 1.3 NE 15 22 8 12 1014.0 1013.7 0.2
06/12:30am 15.3 13.5 13.2 87 1.2 NE 15 24 8 13 1014.2 1013.9 0.2
06/12:00am 15.5 13.6 13.0 85 1.4 NE 15 26 8 14 1014.3 1014.0 0.2
 
Date/Time
WST
Temp
°C
App
Temp
°C
Dew
Point
°C
Rel
Hum
%
Delta-T
°C
Wind Press
QNH
hPa
Press
MSL
hPa
Rain since
9am
mm
Dir  Spd
km/h
Gust
km/h
Spd
kts
Gust
kts
05/11:30pm 16.2 13.6 13.3 83 1.6 NE 19 28 10 15 1014.6 1014.3 0.2
05/11:00pm 16.5 13.8 12.8 79 2.1 ENE 19 26 10 14 1014.7 1014.4 0.2
05/10:30pm 16.5 14.1 12.5 77 2.2 E 17 32 9 17 1015.3 1015.0 0.2
05/10:00pm 16.4 13.5 12.9 80 2.0 E 20 33 11 18 1015.0 1014.7 0.2
05/09:30pm 16.5 12.8 12.7 78 2.1 ESE 24 41 13 22 1014.2 1013.9 0.2
05/09:00pm 16.5 12.8 12.7 78 2.1 ESE 24 39 13 21 1014.6 1014.3 0.2
05/08:30pm 15.9 13.2 13.0 83 1.6 SE 19 33 10 18 1015.6 1015.3 0.2
05/08:00pm 16.5 12.7 12.5 77 2.2 ESE 24 35 13 19 1015.1 1014.8 0.0
05/07:30pm 16.9 13.0 12.2 74 2.6 ESE 24 37 13 20 1015.1 1014.8 0.0
05/07:00pm 16.9 13.1 12.4 75 2.5 SE 24 35 13 19 1014.3 1014.0 0.0
05/06:30pm 17.0 12.8 12.5 75 2.5 SE 26 37 14 20 1013.6 1013.3 0.0
05/06:00pm 17.1 13.0 12.6 75 2.5 SE 26 39 14 21 1013.3 1013.0 0.0
05/05:30pm 17.3 13.6 12.8 75 2.5 SE 24 41 13 22 1013.0 1012.7 0.0
05/05:00pm 17.5 13.8 12.6 73 2.7 SE 24 37 13 20 1012.3 1012.0 0.0
05/04:30pm 17.9 14.2 12.8 72 2.9 SE 24 37 13 20 1011.5 1011.2 0.0
05/04:00pm 18.2 14.0 12.4 69 3.2 SE 26 37 14 20 1011.5 1011.2 0.0
05/03:30pm 18.5 14.9 12.0 66 3.6 ESE 22 37 12 20 1011.8 1011.5 0.0
05/03:00pm 19.1 14.9 12.4 65 3.8 ESE 26 37 14 20 1011.6 1011.3 0.0
05/02:30pm 19.8 15.9 12.1 61 4.3 ESE 24 35 13 19 1012.0 1011.7 0.0
05/02:00pm 19.7 15.3 11.7 60 4.4 ESE 26 39 14 21 1012.2 1011.9 0.0
05/01:30pm 20.0 16.2 12.3 61 4.3 SE 24 37 13 20 1012.3 1012.0 0.0
05/01:00pm 19.7 16.2 12.2 62 4.2 ESE 22 37 12 20 1012.8 1012.5 0.0
05/12:30pm 19.8 15.4 11.6 59 4.5 ESE 26 37 14 20 1012.9 1012.6 0.0
05/12:00pm 20.4 16.6 11.3 56 5.0 ESE 22 35 12 19 1013.0 1012.7 0.0
05/11:30am 19.6 15.3 10.6 56 4.9 ESE 24 35 13 19 1013.3 1013.0 0.0
05/11:00am 20.1 16.4 11.6 58 4.7 ESE 22 35 12 19 1013.3 1013.0 0.0
05/10:30am 19.9 15.8 11.4 58 4.7 ESE 24 35 13 19 1013.7 1013.4 0.0
05/10:00am 19.6 15.1 11.4 59 4.5 ESE 26 35 14 19 1013.9 1013.6 0.0
05/09:30am 19.8 15.5 10.8 56 4.9 ESE 24 35 13 19 1014.1 1013.8 0.0
05/09:00am 19.3 15.7 10.6 57 4.7 ESE 20 37 11 20 1014.4 1014.1 0.0
05/08:30am 19.4 15.9 10.9 58 4.6 ESE 20 30 11 16 1014.8 1014.5 0.0
05/08:00am 19.3 16.1 11.1 59 4.5 ESE 19 26 10 14 1015.3 1015.0 0.0

Other Formats:

Comma delimited format used in spreadsheet applications
http://www.bom.gov.au/fwo/IDW60801/IDW60801.94647.axf

JavaScript Object Notation format (JSON) in row-major order
http://www.bom.gov.au/fwo/IDW60801/IDW60801.94647.json